Time;durP1;ratioP1;P1;durP2;ratioP2;P2;SDS_P1;SDS_P2;PMS_P1;PMS_P2;Temp;Humidity;BMP_temperature;BMP_pressure;BME280_temperature;BME280_humidity;BME280_pressure;Samples;Min_cycle;Max_cycle;Signal;HPM_P1;HPM_P2
2023/12/06 00:00:01;;;;;;;29.43;15.23;;;;;;;1.55;86.15;100862.96;125098;1099;104325;-76
2023/12/06 00:02:34;;;;;;;29.07;14.70;;;;;;;1.55;87.25;100862.96;124901;1099;104301;-77
2023/12/06 00:05:10;;;;;;;31.97;15.33;;;;;;;1.52;86.63;100857.55;125272;1099;101948;-76
2023/12/06 00:07:42;;;;;;;31.53;15.50;;;;;;;1.53;86.20;100867.13;125330;1099;103204;-77
2023/12/06 00:10:13;;;;;;;28.97;15.10;;;;;;;1.57;86.63;100865.67;125222;1098;102001;-77
2023/12/06 00:12:45;;;;;;;30.40;16.30;;;;;;;1.59;86.52;100861.50;125278;1099;104172;-77
2023/12/06 00:15:17;;;;;;;28.07;14.07;;;;;;;1.62;86.96;100866.91;125275;1099;104264;-77
2023/12/06 00:17:48;;;;;;;29.13;14.67;;;;;;;1.65;86.70;100861.98;125188;1099;102035;-77
2023/12/06 00:20:20;;;;;;;29.23;15.10;;;;;;;1.67;87.13;100863.02;125256;1099;104171;-76
2023/12/06 00:22:52;;;;;;;27.73;14.53;;;;;;;1.68;86.76;100858.73;125206;1098;104265;-76
2023/12/06 00:25:23;;;;;;;28.33;14.70;;;;;;;1.69;86.92;100863.14;125175;1099;104201;-77
2023/12/06 00:27:56;;;;;;;28.23;13.90;;;;;;;1.68;86.90;100866.50;125097;1099;104364;-76
2023/12/06 00:30:28;;;;;;;29.77;15.57;;;;;;;1.67;86.66;100868.20;125296;1099;104637;-77
2023/12/06 00:32:59;;;;;;;27.87;14.67;;;;;;;1.66;86.38;100863.80;125281;1099;101807;-77
2023/12/06 00:35:30;;;;;;;29.23;15.37;;;;;;;1.65;86.87;100861.98;125104;1099;104319;-77
2023/12/06 00:38:02;;;;;;;32.23;14.27;;;;;;;1.66;86.94;100860.31;124738;1099;104271;-76
2023/12/06 00:40:33;;;;;;;33.13;15.07;;;;;;;1.65;87.20;100861.09;125102;1099;104323;-76
2023/12/06 00:43:05;;;;;;;33.83;15.30;;;;;;;1.63;87.45;100860.97;125147;1099;104181;-76
2023/12/06 00:45:37;;;;;;;29.20;15.17;;;;;;;1.64;86.68;100867.03;125288;1099;104163;-77
2023/12/06 00:48:08;;;;;;;30.67;15.67;;;;;;;1.64;86.86;100861.86;125333;1099;102016;-76
2023/12/06 00:50:40;;;;;;;29.97;15.10;;;;;;;1.64;86.88;100861.86;125291;1099;104310;-79
2023/12/06 00:53:11;;;;;;;29.67;14.87;;;;;;;1.65;87.36;100864.56;125210;1099;102858;-76
2023/12/06 00:55:43;;;;;;;29.90;14.57;;;;;;;1.64;86.85;100869.62;125223;1099;103085;-76
2023/12/06 00:58:14;;;;;;;32.23;15.40;;;;;;;1.64;86.94;100861.86;125224;1099;104243;-77
2023/12/06 01:00:46;;;;;;;30.23;16.07;;;;;;;1.64;87.28;100861.86;125212;1099;102660;-78
2023/12/06 01:03:17;;;;;;;30.47;16.20;;;;;;;1.60;87.29;100852.97;125262;1099;102541;-77
2023/12/06 01:05:49;;;;;;;31.40;15.47;;;;;;;1.58;87.74;100858.03;125187;1098;104230;-76
2023/12/06 01:08:20;;;;;;;30.63;15.27;;;;;;;1.54;87.79;100852.50;125110;1099;104281;-77
2023/12/06 01:10:52;;;;;;;30.97;16.07;;;;;;;1.53;87.79;100856.78;125302;1099;104209;-76
2023/12/06 01:13:24;;;;;;;33.00;15.43;;;;;;;1.55;87.78;100862.96;125324;1099;104117;-76
2023/12/06 01:15:56;;;;;;;29.07;15.40;;;;;;;1.55;87.38;100860.37;125279;1099;104347;-77
2023/12/06 01:18:27;;;;;;;30.47;15.27;;;;;;;1.57;87.79;100848.48;125150;1099;104172;-76
2023/12/06 01:20:59;;;;;;;29.40;15.20;;;;;;;1.55;88.11;100852.61;125080;1099;104229;-76
2023/12/06 01:23:30;;;;;;;28.63;14.70;;;;;;;1.53;87.74;100842.95;125262;1099;104245;-76
2023/12/06 01:26:02;;;;;;;27.73;14.47;;;;;;;1.50;87.94;100845.30;125137;1099;102026;-76
2023/12/06 01:28:33;;;;;;;27.57;14.37;;;;;;;1.52;88.65;100847.20;125251;1099;102197;-76
2023/12/06 01:31:05;;;;;;;27.67;13.77;;;;;;;1.56;88.13;100840.61;125009;1099;118600;-76
2023/12/06 01:33:36;;;;;;;29.93;14.47;;;;;;;1.57;88.96;100835.55;125224;1099;101871;-76
2023/12/06 01:36:09;;;;;;;27.83;14.33;;;;;;;1.57;88.11;100842.39;125280;1099;104149;-77
2023/12/06 01:38:41;;;;;;;28.87;14.43;;;;;;;1.59;88.39;100841.73;125263;1098;104172;-77
2023/12/06 01:41:14;;;;;;;26.10;13.43;;;;;;;1.59;88.44;100845.98;125164;1099;101829;-77
2023/12/06 01:43:46;;;;;;;26.73;12.85;;;;;;;1.58;88.08;100837.33;125233;1099;104241;-76
2023/12/06 01:46:18;;;;;;;26.33;13.17;;;;;;;1.57;89.19;100840.72;125108;1099;104190;-77
2023/12/06 01:48:50;;;;;;;25.30;12.97;;;;;;;1.54;88.96;100837.91;125149;1099;104173;-76
2023/12/06 01:51:23;;;;;;;26.23;13.80;;;;;;;1.54;88.61;100831.80;125204;1099;104223;-76
2023/12/06 01:53:55;;;;;;;29.03;14.70;;;;;;;1.53;88.80;100833.50;125315;1098;104205;-76
2023/12/06 01:56:26;;;;;;;28.10;14.40;;;;;;;1.51;88.62;100826.39;125106;1099;104185;-76
2023/12/06 01:58:59;;;;;;;27.17;14.10;;;;;;;1.50;89.00;100824.61;125113;1099;104191;-74
2023/12/06 02:01:31;;;;;;;26.00;14.27;;;;;;;1.53;88.81;100822.27;125137;1099;101947;-74
2023/12/06 02:04:03;;;;;;;27.23;14.47;;;;;;;1.56;88.76;100822.50;124657;1099;104262;-74
2023/12/06 02:06:35;;;;;;;26.60;14.30;;;;;;;1.55;88.97;100826.75;125131;1098;102000;-74
2023/12/06 02:09:09;;;;;;;27.77;14.93;;;;;;;1.55;88.75;100826.75;125055;1098;104357;-73
2023/12/06 02:11:40;;;;;;;25.23;13.30;;;;;;;1.56;88.66;100822.50;124971;1098;104063;-73
2023/12/06 02:14:12;;;;;;;27.50;13.93;;;;;;;1.58;89.21;100820.92;125060;1099;102530;-76
2023/12/06 02:16:44;;;;;;;23.93;12.63;;;;;;;1.54;89.69;100814.62;124806;1099;104167;-74
2023/12/06 02:19:26;;;;;;;27.63;14.03;;;;;;;1.51;89.10;100824.73;125019;1099;103303;-72
2023/12/06 02:21:59;;;;;;;27.03;13.43;;;;;;;1.50;89.32;100816.86;124965;1099;104329;-74
2023/12/06 02:24:32;;;;;;;27.03;14.60;;;;;;;1.50;89.20;100816.86;124465;1099;104272;-73
2023/12/06 02:27:04;;;;;;;25.40;13.30;;;;;;;1.49;90.41;100817.63;124947;1097;104309;-72
2023/12/06 02:29:36;;;;;;;24.40;12.63;;;;;;;1.44;90.34;100825.03;124874;1099;104326;-73
2023/12/06 02:32:08;;;;;;;26.20;12.47;;;;;;;1.41;89.86;100814.45;124941;1099;101938;-73
2023/12/06 02:34:41;;;;;;;27.87;13.67;;;;;;;1.37;90.02;100815.91;124901;1099;104191;-73
2023/12/06 02:37:16;;;;;;;24.37;12.03;;;;;;;1.39;90.07;100810.86;124920;1099;104172;-73
2023/12/06 02:39:49;;;;;;;25.27;12.03;;;;;;;1.38;90.12;100807.34;124678;1099;104140;-73
2023/12/06 02:42:21;;;;;;;25.00;12.77;;;;;;;1.37;89.59;100812.40;124925;1099;105531;-73
2023/12/06 02:44:52;;;;;;;25.57;13.17;;;;;;;1.37;89.47;100809.81;125001;1099;104311;-73
2023/12/06 02:47:24;;;;;;;26.03;12.57;;;;;;;1.38;89.87;100809.04;124906;1099;101952;-73
2023/12/06 02:49:56;;;;;;;25.33;12.10;;;;;;;1.38;89.84;100807.34;124891;1099;102492;-73
2023/12/06 02:52:27;;;;;;;25.20;12.40;;;;;;;1.39;90.02;100809.16;124993;1099;104277;-73
2023/12/06 02:54:59;;;;;;;28.13;13.77;;;;;;;1.40;90.16;100803.22;124605;1099;104803;-73
2023/12/06 02:57:30;;;;;;;26.17;12.20;;;;;;;1.38;90.28;100809.93;124704;1099;102031;-73
2023/12/06 03:00:01;;;;;;;26.30;12.67;;;;;;;1.35;90.17;100803.63;124653;1099;104198;-73
2023/12/06 03:02:33;;;;;;;25.23;13.03;;;;;;;1.33;89.93;100813.86;124810;1098;102373;-73
2023/12/06 03:05:05;;;;;;;28.50;13.60;;;;;;;1.32;90.04;100812.04;124883;1099;104051;-73
2023/12/06 03:07:36;;;;;;;26.73;12.90;;;;;;;1.32;90.12;100817.21;124826;1099;104201;-74
2023/12/06 03:10:09;;;;;;;28.37;13.73;;;;;;;1.33;90.67;100823.31;124901;1099;104203;-73
2023/12/06 03:12:40;;;;;;;28.07;14.17;;;;;;;1.33;90.44;100824.20;124990;1099;102606;-73
2023/12/06 03:15:12;;;;;;;27.70;13.80;;;;;;;1.34;90.52;100826.02;124970;1099;101938;-73
2023/12/06 03:17:44;;;;;;;24.67;11.27;;;;;;;1.37;91.57;100827.91;124869;1098;104169;-74
2023/12/06 03:20:15;;;;;;;30.20;14.90;;;;;;;1.35;91.04;100822.63;124931;1098;104163;-73
2023/12/06 03:22:47;;;;;;;27.47;13.13;;;;;;;1.36;91.49;100828.72;124919;1099;104245;-73
2023/12/06 03:25:18;;;;;;;28.57;13.13;;;;;;;1.38;91.76;100829.73;124861;1099;104290;-73
2023/12/06 03:27:50;;;;;;;28.87;12.90;;;;;;;1.36;91.78;100823.55;124890;1099;104191;-72
2023/12/06 03:30:23;;;;;;;31.77;14.43;;;;;;;1.35;91.69;100822.63;124666;1099;101916;-73
2023/12/06 03:32:55;;;;;;;29.37;14.50;;;;;;;1.36;91.28;100824.44;124947;1099;104265;-73
2023/12/06 03:35:26;;;;;;;29.57;14.33;;;;;;;1.37;91.49;100821.08;124948;1099;104239;-73
2023/12/06 03:37:58;;;;;;;28.87;13.40;;;;;;;1.39;92.07;100823.78;124985;1098;104344;-73
2023/12/06 03:40:29;;;;;;;29.17;14.63;;;;;;;1.38;91.37;100822.86;124959;1099;104214;-73
2023/12/06 03:43:01;;;;;;;29.73;14.20;;;;;;;1.39;91.22;100826.38;124944;1099;101829;-73
2023/12/06 03:45:32;;;;;;;30.63;14.67;;;;;;;1.40;91.49;100831.66;124885;1099;101836;-74
2023/12/06 03:48:04;;;;;;;31.10;14.63;;;;;;;1.40;91.96;100829.08;124875;1099;104232;-73
2023/12/06 03:50:36;;;;;;;29.93;14.87;;;;;;;1.40;91.64;100826.48;124574;1099;104639;-73
2023/12/06 03:53:08;;;;;;;29.37;14.13;;;;;;;1.41;91.34;100832.55;124809;1098;104233;-74
2023/12/06 03:55:40;;;;;;;30.70;14.60;;;;;;;1.41;91.91;100832.55;124813;1099;104262;-73
2023/12/06 03:58:12;;;;;;;30.13;14.03;;;;;;;1.40;92.01;100835.91;124825;1098;104232;-74
2023/12/06 04:00:43;;;;;;;31.00;15.20;;;;;;;1.40;92.16;100831.66;124747;1099;104344;-75
2023/12/06 04:03:15;;;;;;;29.73;15.37;;;;;;;1.41;92.11;100836.03;124698;1099;104347;-75
2023/12/06 04:05:46;;;;;;;32.33;14.83;;;;;;;1.40;92.27;100831.66;124698;1099;102784;-75
2023/12/06 04:08:18;;;;;;;30.70;15.77;;;;;;;1.41;92.49;100833.44;124853;1099;104251;-75
2023/12/06 04:10:49;;;;;;;29.67;14.13;;;;;;;1.43;92.11;100831.90;124821;1099;102406;-75
2023/12/06 04:13:21;;;;;;;31.57;14.77;;;;;;;1.41;92.63;100833.44;124593;1099;102256;-75
2023/12/06 04:15:52;;;;;;;29.25;15.00;;;;;;;1.41;92.35;100836.03;124854;1099;104274;-75
2023/12/06 04:18:24;;;;;;;29.30;14.27;;;;;;;1.42;92.33;100845.59;124799;1099;104060;-75
2023/12/06 04:20:55;;;;;;;30.03;14.87;;;;;;;1.43;92.43;100844.83;124869;1099;104278;-75
2023/12/06 04:23:34;;;;;;;34.47;15.43;;;;;;;1.47;92.44;100843.37;124807;1099;102582;-75
2023/12/06 04:26:10;;;;;;;28.10;13.77;;;;;;;1.51;92.28;100844.50;124852;1099;104238;-77
2023/12/06 04:28:41;;;;;;;28.37;13.27;;;;;;;1.48;91.66;100844.27;124779;1099;101935;-75
2023/12/06 04:31:13;;;;;;;28.95;13.85;;;;;;;1.47;91.90;100843.37;124769;1099;104699;-75
2023/12/06 04:33:45;;;;;;;30.50;14.47;;;;;;;1.47;92.03;100845.06;124742;1099;104053;-75
2023/12/06 04:36:16;;;;;;;32.43;14.50;;;;;;;1.43;93.26;100839.66;124755;1099;101932;-76
2023/12/06 04:38:48;;;;;;;28.63;14.27;;;;;;;1.44;92.71;100836.27;124872;1099;101858;-77
2023/12/06 04:41:19;;;;;;;31.90;14.43;;;;;;;1.43;92.26;100834.48;124804;1099;102201;-76
2023/12/06 04:43:51;;;;;;;30.87;14.17;;;;;;;1.39;92.83;100835.02;124792;1099;101913;-76
2023/12/06 04:46:22;;;;;;;31.33;14.90;;;;;;;1.31;92.69;100841.29;124870;1099;101878;-75
2023/12/06 04:48:53;;;;;;;30.60;15.13;;;;;;;1.27;93.44;100839.23;124853;1099;101897;-75
2023/12/06 04:51:25;;;;;;;34.60;15.60;;;;;;;1.24;93.07;100841.58;124867;1099;104162;-75
2023/12/06 04:53:56;;;;;;;33.27;16.30;;;;;;;1.20;93.00;100843.03;124847;1099;104277;-76
2023/12/06 04:56:28;;;;;;;33.87;15.60;;;;;;;1.20;92.84;100837.86;124837;1099;104638;-76
2023/12/06 04:58:59;;;;;;;33.17;16.43;;;;;;;1.20;93.11;100837.86;124663;1099;102007;-76
2023/12/06 05:01:31;;;;;;;34.50;15.45;;;;;;;1.25;93.34;100840.80;124974;1099;104197;-77
2023/12/06 05:04:03;;;;;;;34.77;15.33;;;;;;;1.23;93.57;100844.94;124881;1099;101826;-76
2023/12/06 05:06:34;;;;;;;37.60;17.30;;;;;;;1.19;93.17;100841.22;125011;1099;103162;-76
2023/12/06 05:09:07;;;;;;;36.43;17.07;;;;;;;1.18;93.42;100841.98;124909;1099;104211;-76
2023/12/06 05:11:38;;;;;;;33.30;17.00;;;;;;;1.21;93.29;100837.05;124937;1099;102044;-77
2023/12/06 05:14:10;;;;;;;39.13;16.77;;;;;;;1.24;93.06;100833.83;125067;1099;104807;-77
2023/12/06 05:16:41;;;;;;;36.13;17.43;;;;;;;1.27;93.22;100835.76;125199;1099;102352;-77
2023/12/06 05:19:13;;;;;;;37.17;17.97;;;;;;;1.25;93.58;100838.22;125019;1099;104185;-76
2023/12/06 05:21:44;;;;;;;35.47;17.53;;;;;;;1.26;93.40;100840.00;124759;1099;104166;-76
2023/12/06 05:24:16;;;;;;;35.73;16.83;;;;;;;1.24;92.88;100833.83;124954;1099;104173;-76
2023/12/06 05:26:48;;;;;;;35.10;18.00;;;;;;;1.29;93.43;100842.83;124894;1099;104271;-76
2023/12/06 05:29:19;;;;;;;37.37;17.60;;;;;;;1.33;93.65;100834.54;125038;1099;102978;-76
2023/12/06 05:31:51;;;;;;;38.70;18.63;;;;;;;1.29;93.28;100837.66;124937;1099;104172;-76
2023/12/06 05:34:27;;;;;;;37.67;18.27;;;;;;;1.30;93.65;100838.58;125061;1098;103047;-77
2023/12/06 05:37:00;;;;;;;34.50;17.97;;;;;;;1.29;93.11;100840.24;124402;1099;104290;-77
2023/12/06 05:39:33;;;;;;;35.33;16.42;;;;;;;1.30;93.67;100838.58;124996;1099;104163;-77
2023/12/06 05:42:05;;;;;;;38.03;17.50;;;;;;;1.28;93.07;100838.46;125060;1099;102242;-77
2023/12/06 05:44:37;;;;;;;38.83;18.23;;;;;;;1.24;93.41;100839.88;125007;1099;102698;-75
2023/12/06 05:47:10;;;;;;;35.93;17.17;;;;;;;1.26;93.14;100847.76;124768;1099;104198;-76
2023/12/06 05:49:42;;;;;;;37.77;17.40;;;;;;;1.26;93.73;100847.76;124442;1099;104172;-75
2023/12/06 05:52:14;;;;;;;38.40;17.73;;;;;;;1.29;94.44;100844.52;124929;1099;102045;-76
2023/12/06 05:54:48;;;;;;;42.80;19.77;;;;;;;1.32;93.87;100844.77;124924;1099;104197;-75
2023/12/06 05:57:20;;;;;;;36.47;18.40;;;;;;;1.36;93.73;100847.70;124858;1099;104310;-76
2023/12/06 05:59:51;;;;;;;34.80;17.17;;;;;;;1.36;93.38;100846.81;124780;1099;102331;-74
2023/12/06 06:02:23;;;;;;;36.73;18.33;;;;;;;1.38;93.97;100853.00;124927;1098;104293;-76
2023/12/06 06:04:54;;;;;;;33.60;16.40;;;;;;;1.34;93.36;100849.28;125153;1099;104245;-75
2023/12/06 06:07:27;;;;;;;33.00;16.20;;;;;;;1.38;93.66;100853.89;125002;1098;102524;-73
2023/12/06 06:09:59;;;;;;;28.67;14.50;;;;;;;1.40;94.36;100849.77;125083;1099;102320;-76
2023/12/06 06:12:30;;;;;;;33.95;17.35;;;;;;;1.42;93.26;100847.30;124923;1099;104291;-76
2023/12/06 06:15:02;;;;;;;31.80;15.53;;;;;;;1.43;93.17;100852.59;125027;1099;104271;-75
2023/12/06 06:17:34;;;;;;;29.80;15.17;;;;;;;1.44;93.51;100851.78;125150;1099;104229;-75
2023/12/06 06:20:12;;;;;;;33.07;16.83;;;;;;;1.43;93.83;100862.01;124874;1099;104270;-75
2023/12/06 06:22:47;;;;;;;33.40;16.23;;;;;;;1.42;93.17;100868.88;124611;1099;104214;-75
2023/12/06 06:25:18;;;;;;;31.60;15.57;;;;;;;1.41;93.38;100864.47;124594;1099;104121;-74
2023/12/06 06:27:51;;;;;;;26.83;14.80;;;;;;;1.43;93.44;100872.35;124627;1099;104229;-74
2023/12/06 06:30:23;;;;;;;31.23;15.47;;;;;;;1.45;94.12;100865.64;124521;1099;104270;-73
2023/12/06 06:32:54;;;;;;;32.07;16.33;;;;;;;1.46;93.98;100862.25;124598;1099;104204;-72
2023/12/06 06:35:26;;;;;;;29.60;15.23;;;;;;;1.45;93.90;100868.22;124615;1099;104300;-73
2023/12/06 06:38:05;;;;;;;29.23;15.13;;;;;;;1.44;93.61;100864.71;124593;1099;104220;-74
2023/12/06 06:40:41;;;;;;;29.97;14.33;;;;;;;1.46;93.76;100863.94;124640;1099;104191;-73
2023/12/06 06:43:15;;;;;;;28.00;15.07;;;;;;;1.46;94.11;100861.36;124653;1099;101985;-73
2023/12/06 06:45:48;;;;;;;33.90;15.08;;;;;;;1.47;94.14;100858.00;124539;1099;104312;-72
2023/12/06 06:48:20;;;;;;;30.77;15.47;;;;;;;1.50;93.96;100869.47;124530;1099;102145;-74
2023/12/06 06:50:52;;;;;;;28.13;14.70;;;;;;;1.51;93.67;100865.19;125268;1099;104256;-73
2023/12/06 06:53:26;;;;;;;28.70;14.47;;;;;;;1.53;93.77;100864.54;124858;1099;104280;-75
2023/12/06 06:56:12;;;;;;;30.05;14.87;;;;;;;1.56;93.89;100863.89;124530;1099;104169;-76
2023/12/06 06:58:43;;;;;;;27.45;13.90;;;;;;;1.60;93.85;100863.31;125348;1099;104261;-76
2023/12/06 07:01:15;;;;;;;27.57;14.60;;;;;;;1.63;94.02;100867.84;125098;1098;104235;-72
2023/12/06 07:03:46;;;;;;;28.83;13.60;;;;;;;1.67;93.77;100872.45;125161;1099;104133;-74
2023/12/06 07:06:19;;;;;;;28.97;13.83;;;;;;;1.68;93.68;100877.73;124714;1099;104217;-73
2023/12/06 07:08:51;;;;;;;30.00;15.00;;;;;;;1.69;93.50;100876.08;124772;1099;104241;-72
2023/12/06 07:11:29;;;;;;;27.60;13.63;;;;;;;1.70;93.29;100873.61;124770;1099;101804;-75
2023/12/06 07:14:03;;;;;;;27.10;14.53;;;;;;;1.73;93.58;100879.02;125067;1099;103473;-72
2023/12/06 07:16:35;;;;;;;27.67;14.03;;;;;;;1.76;93.03;100883.50;124620;1099;104182;-72
2023/12/06 07:19:10;;;;;;;26.57;13.93;;;;;;;1.77;93.46;100874.97;124705;1099;104728;-73
2023/12/06 07:22:01;;;;;;;26.67;13.87;;;;;;;1.77;93.79;100881.03;124835;1099;102042;-71
2023/12/06 07:24:32;;;;;;;30.30;14.00;;;;;;;1.80;93.81;100881.27;125148;1099;104211;-70
2023/12/06 07:27:04;;;;;;;29.73;14.83;;;;;;;1.85;93.46;100878.14;125425;1098;104313;-73
2023/12/06 07:29:36;;;;;;;28.50;14.43;;;;;;;1.87;93.75;100876.56;125129;1099;104396;-73
2023/12/06 07:32:14;;;;;;;30.07;14.83;;;;;;;1.86;93.17;100880.85;125211;1102;101923;-71
2023/12/06 07:34:49;;;;;;;27.50;14.77;;;;;;;1.88;93.27;100875.79;126286;1098;104178;-71
2023/12/06 07:37:26;;;;;;;26.93;13.83;;;;;;;1.92;93.23;100881.31;126288;1099;101809;-72
2023/12/06 07:39:58;;;;;;;28.05;14.60;;;;;;;1.95;93.41;100883.25;126035;1097;102107;-75
2023/12/06 07:45:17;;;;;;;29.50;13.87;;;;;;;2.03;93.25;100882.14;127348;1098;101946;-73
2023/12/06 07:47:51;;;;;;;29.10;14.80;;;;;;;2.06;93.41;100884.95;125186;1099;104182;-73
2023/12/06 07:50:21;;;;;;;;;;;;;;;2.08;93.75;100896.32;124551;1099;102412;-72
2023/12/06 07:52:53;;;;;;;30.47;14.57;;;;;;;2.10;93.42;100894.77;126883;1098;102018;-75
2023/12/06 07:55:26;;;;;;;29.83;15.10;;;;;;;2.11;93.14;100896.55;126574;1089;104297;-74
2023/12/06 07:57:59;;;;;;;28.67;15.90;;;;;;;2.12;93.37;100898.37;125019;1099;104220;-74
2023/12/06 08:00:31;;;;;;;27.35;14.93;;;;;;;2.11;93.42;100885.31;125058;1098;102067;-74
2023/12/06 08:03:03;;;;;;;29.53;15.00;;;;;;;2.12;92.66;100893.19;124542;1099;102366;-72
2023/12/06 08:05:38;;;;;;;30.03;15.30;;;;;;;2.06;93.08;100884.06;124704;1099;103182;-72
2023/12/06 08:08:13;;;;;;;29.23;15.77;;;;;;;2.15;93.09;100890.83;124851;1099;104159;-72
2023/12/06 08:10:56;;;;;;;30.10;16.07;;;;;;;2.19;93.48;100883.30;124850;1099;104239;-73
2023/12/06 08:13:31;;;;;;;27.17;14.70;;;;;;;2.19;93.17;100891.06;124883;1099;104242;-72
2023/12/06 08:16:05;;;;;;;27.77;14.60;;;;;;;2.21;93.05;100892.96;124915;1098;104412;-78
2023/12/06 08:18:44;;;;;;;27.37;14.43;;;;;;;2.27;93.01;100900.30;125680;1098;101926;-76
2023/12/06 08:21:16;;;;;;;27.70;13.63;;;;;;;2.29;93.05;100888.36;124782;1099;104191;-73
2023/12/06 08:23:48;;;;;;;25.70;13.70;;;;;;;2.29;92.97;100897.05;124355;1099;104271;-73
2023/12/06 08:26:22;;;;;;;25.43;12.57;;;;;;;2.26;92.84;100888.13;124451;1100;101954;-73
2023/12/06 08:28:54;;;;;;;25.33;13.27;;;;;;;2.30;92.81;100895.36;124857;1099;102259;-74
2023/12/06 08:31:28;;;;;;;25.37;13.40;;;;;;;2.32;93.03;100891.18;126470;1098;102169;-75
2023/12/06 08:34:01;;;;;;;25.10;12.67;;;;;;;2.38;93.13;100878.69;126138;1099;101741;-73
2023/12/06 08:36:52;;;;;;;25.47;13.67;;;;;;;2.42;93.28;100879.84;127263;1098;104054;-77
2023/12/06 08:39:39;;;;;;;27.87;13.43;;;;;;;2.48;93.11;100877.70;125239;1099;104238;-76
2023/12/06 08:42:17;;;;;;;28.73;14.03;;;;;;;2.55;93.29;100876.46;126273;1099;101598;-75
2023/12/06 08:44:53;;;;;;;27.43;12.60;;;;;;;2.57;92.69;100878.39;126159;1098;102446;-74
2023/12/06 08:47:44;;;;;;;25.63;13.77;;;;;;;2.58;92.81;100871.50;126175;1098;101919;-74
2023/12/06 08:50:28;;;;;;;27.40;15.70;;;;;;;2.60;92.02;100862.14;125857;1099;104210;-74
2023/12/06 08:53:10;;;;;;;27.47;15.17;;;;;;;2.63;92.07;100859.78;124929;1099;101884;-73
2023/12/06 08:55:46;;;;;;;29.60;15.20;;;;;;;2.64;91.97;100864.19;125727;1099;102060;-73
2023/12/06 08:58:24;;;;;;;29.67;15.17;;;;;;;2.57;91.95;100848.97;125011;1098;104192;-73
2023/12/06 09:01:05;;;;;;;28.70;15.50;;;;;;;2.68;91.98;100864.52;125138;1099;101927;-74
2023/12/06 09:03:47;;;;;;;26.85;14.50;;;;;;;2.74;92.22;100858.86;125041;1099;104169;-71
2023/12/06 09:06:20;;;;;;;27.33;15.00;;;;;;;2.76;92.13;100852.12;125083;1099;101957;-75
2023/12/06 09:08:52;;;;;;;27.70;15.95;;;;;;;2.75;91.66;100858.09;125578;1098;104255;-75
2023/12/06 09:11:50;;;;;;;27.98;15.70;;;;;;;2.78;92.32;100860.90;126111;1099;102501;-80
2023/12/06 09:14:27;;;;;;;28.73;15.93;;;;;;;2.83;91.99;100861.23;126660;1098;102012;-79
2023/12/06 09:17:16;;;;;;;26.90;15.63;;;;;;;2.88;92.00;100865.97;126513;1098;101720;-79
2023/12/06 09:19:52;;;;;;;28.60;15.40;;;;;;;2.87;91.92;100858.09;127013;1098;102119;-82
2023/12/06 09:22:32;;;;;;;29.87;16.17;;;;;;;2.88;91.86;100858.20;125995;1099;102082;-80
2023/12/06 09:25:21;;;;;;;27.73;14.40;;;;;;;2.85;91.00;100852.79;126195;1099;101984;-81
2023/12/06 09:28:13;;;;;;;26.73;15.33;;;;;;;2.87;91.56;100850.31;125753;1099;104259;-81
2023/12/06 09:30:56;;;;;;;30.27;15.03;;;;;;;2.89;91.63;100856.49;126048;1099;101809;-81
2023/12/06 09:33:34;;;;;;;;;;;;;;;2.85;91.41;100850.20;126740;1098;109486;-80
2023/12/06 09:36:15;;;;;;;30.73;16.60;;;;;;;2.81;91.90;100842.98;126370;1099;101846;-81
2023/12/06 09:38:52;;;;;;;32.03;17.47;;;;;;;2.83;91.68;100846.57;126733;1099;102361;-78
2023/12/06 09:41:52;;;;;;;30.97;16.60;;;;;;;2.86;92.40;100851.09;127217;1098;104079;-81
2023/12/06 09:44:33;;;;;;;28.70;15.73;;;;;;;2.87;91.88;100858.98;126869;1099;102120;-76
2023/12/06 09:50:43;;;;;;;;;;;;;;;;;;;;;
2023/12/06 09:53:35;;;;;;;27.87;14.97;;;;;;;2.98;91.76;100854.56;126944;1090;102322;-75
2023/12/06 09:56:24;;;;;;;27.27;14.77;;;;;;;2.99;91.11;100846.00;127289;1099;101627;-79
2023/12/06 09:59:03;;;;;;;29.00;16.50;;;;;;;3.03;91.37;100841.93;127036;1098;102223;-79
2023/12/06 10:01:51;;;;;;;25.77;14.53;;;;;;;3.09;91.95;100844.96;127566;1098;104214;-81
2023/12/06 10:04:44;;;;;;;29.70;16.13;;;;;;;3.11;91.85;100835.59;127086;1098;101601;-83
2023/12/06 10:07:36;;;;;;;28.10;14.73;;;;;;;3.12;91.58;100839.99;127586;1098;102155;-79
2023/12/06 10:10:29;;;;;;;27.37;14.57;;;;;;;3.13;91.29;100835.69;126134;1099;104062;-84
2023/12/06 10:13:36;;;;;;;27.33;15.43;;;;;;;3.08;91.58;100837.07;127339;1098;101795;-86
2023/12/06 10:16:33;;;;;;;28.17;15.13;;;;;;;3.10;91.58;100841.59;127476;1098;101791;-82
2023/12/06 10:22:43;;;;;;;25.97;13.20;;;;;;;3.01;89.17;100844.41;126222;1099;102292;-83
2023/12/06 10:25:43;;;;;;;26.45;13.60;;;;;;;2.99;89.58;100837.30;126718;1098;102805;-82
2023/12/06 10:28:21;;;;;;;25.97;13.72;;;;;;;2.99;90.19;100838.23;125556;1099;101908;-81
2023/12/06 10:31:07;;;;;;;24.45;14.10;;;;;;;3.04;90.89;100830.78;126870;1098;101827;-80
2023/12/06 10:33:47;;;;;;;;;;;;;;;3.06;90.26;100830.08;127262;1098;105575;-79
2023/12/06 10:36:37;;;;;;;29.40;14.13;;;;;;;3.19;91.12;100833.53;127699;1097;101913;-81
2023/12/06 10:39:32;;;;;;;26.40;14.40;;;;;;;3.24;90.96;100833.08;126955;1099;101686;-85
2023/12/06 10:42:17;;;;;;;27.97;14.83;;;;;;;3.21;90.79;100832.86;126213;1099;104181;-86
2023/12/06 10:45:05;;;;;;;27.73;14.97;;;;;;;3.16;90.85;100826.43;126466;1099;101822;-82
2023/12/06 10:48:02;;;;;;;26.40;13.97;;;;;;;3.15;90.70;100821.17;126818;1098;101604;-79
2023/12/06 10:50:43;;;;;;;23.10;13.07;;;;;;;3.22;90.21;100823.37;127236;1098;104265;-79
2023/12/06 10:53:21;;;;;;;27.80;14.83;;;;;;;3.20;89.61;100819.79;126222;1099;101981;-79
2023/12/06 10:56:04;;;;;;;27.87;14.80;;;;;;;3.22;90.20;100811.30;126136;1099;101804;-79
2023/12/06 10:58:48;;;;;;;24.60;13.70;;;;;;;3.21;90.06;100819.90;126755;1099;102382;-79
2023/12/06 11:01:24;;;;;;;27.30;13.43;;;;;;;3.20;89.93;100807.71;127578;1098;101937;-79
2023/12/06 11:04:22;;;;;;;25.07;12.87;;;;;;;3.16;89.54;100808.27;127251;1090;103966;31
2023/12/06 11:07:19;;;;;;;24.77;13.17;;;;;;;3.16;89.32;100810.88;126844;1100;108438;-79
2023/12/06 11:10:09;;;;;;;25.17;13.23;;;;;;;3.17;89.28;100804.02;126429;1101;104323;-78
2023/12/06 11:13:49;;;;;;;24.70;12.90;;;;;;;3.12;88.13;100806.28;126830;1101;101590;-79
2023/12/06 11:16:43;;;;;;;22.17;10.80;;;;;;;3.16;88.14;100807.39;126252;1101;101796;-77
2023/12/06 11:19:24;;;;;;;26.13;11.73;;;;;;;3.19;88.53;100800.71;125740;1102;102317;-80
2023/12/06 11:21:57;;;;;;;25.70;13.10;;;;;;;3.24;89.05;100796.77;126013;1101;104290;-78
2023/12/06 11:24:31;;;;;;;24.63;12.58;;;;;;;3.28;89.60;100792.69;126314;1101;101865;-78
2023/12/06 11:27:26;;;;;;;23.95;12.82;;;;;;;3.36;89.43;100798.41;125591;1102;101834;-76
2023/12/06 11:30:03;;;;;;;26.40;13.23;;;;;;;3.41;88.85;100792.75;126166;1101;101596;-77
2023/12/06 11:37:16;;;;;;;;;;;;;;;;;;;;;
2023/12/06 11:40:27;;;;;;;24.80;12.47;;;;;;;3.41;88.46;100786.64;125283;1102;102016;-78
2023/12/06 11:43:08;;;;;;;25.87;12.87;;;;;;;3.43;89.35;100777.30;125911;1102;101793;-77
2023/12/06 11:45:44;;;;;;;23.43;11.57;;;;;;;3.45;88.47;100770.50;126355;1102;101762;-77
2023/12/06 11:48:16;;;;;;;26.45;13.20;;;;;;;3.38;87.80;100770.87;125894;1101;102028;-83
2023/12/06 11:51:07;;;;;;;22.97;12.17;;;;;;;3.33;87.94;100774.84;126402;1101;104201;-84
2023/12/06 11:53:42;;;;;;;25.17;11.60;;;;;;;3.24;87.03;100772.50;125755;1102;101889;-79
2023/12/06 11:56:20;;;;;;;25.63;13.23;;;;;;;3.13;87.55;100771.79;125554;1102;104188;-80